Roberta, Georgia
Current Conditions -  °F | °C
As of 2:55 PM on Wednesday 17 Dec 2014 (Local Time) from KPXE Reporting Station
Clear Clear  
Wind Chill: 18°   Ceiling: Unl
Heat Index: 18°   Visibility: 10mi
Dew Point:   Wind: 10mph
Humidity: 36%   Direction: 330°NNW
Pressure: 30.13"   Gusts: NA
Location:  32.72°N, 84.01°W
Report Text: KPXE 171955Z AUTO 33009KT 10SM CLR 18/02 A3013 RMK AO2 T01760023
Loading
Personal Weather Stations






























Interactive Weather Map New forecast layout! Learn more

10-Day Weather Forecast

Advertisements
Track Severe Weather on mobile